sensor_id;sensor_type;location;lat;lon;timestamp;pressure;altitude;pressure_sealevel;temperature;humidity
64352;BME280;50680;52.626;-8.668;2022-10-19T00:00:01;101752.91;;;13.46;100.00
64352;BME280;50680;52.626;-8.668;2022-10-19T00:02:28;101753.97;;;13.42;100.00
64352;BME280;50680;52.626;-8.668;2022-10-19T00:04:55;101737.41;;;13.40;100.00
64352;BME280;50680;52.626;-8.668;2022-10-19T00:07:21;101738.25;;;13.41;100.00
64352;BME280;50680;52.626;-8.668;2022-10-19T00:09:49;101742.69;;;13.40;100.00
64352;BME280;50680;52.626;-8.668;2022-10-19T00:12:16;101755.09;;;13.38;100.00
64352;BME280;50680;52.626;-8.668;2022-10-19T00:14:43;101736.91;;;13.33;100.00
64352;BME280;50680;52.626;-8.668;2022-10-19T00:17:10;101739.78;;;13.29;100.00
64352;BME280;50680;52.626;-8.668;2022-10-19T00:19:37;101739.06;;;13.25;100.00
64352;BME280;50680;52.626;-8.668;2022-10-19T00:22:04;101725.06;;;13.25;100.00
64352;BME280;50680;52.626;-8.668;2022-10-19T00:24:34;101728.63;;;13.24;100.00
64352;BME280;50680;52.626;-8.668;2022-10-19T00:27:01;101754.03;;;13.25;100.00
64352;BME280;50680;52.626;-8.668;2022-10-19T00:29:28;101744.16;;;13.28;100.00
64352;BME280;50680;52.626;-8.668;2022-10-19T00:31:55;101737.91;;;13.31;100.00
64352;BME280;50680;52.626;-8.668;2022-10-19T00:34:22;101732.78;;;13.28;100.00
64352;BME280;50680;52.626;-8.668;2022-10-19T00:36:49;101733.03;;;13.23;100.00
64352;BME280;50680;52.626;-8.668;2022-10-19T00:39:16;101733.63;;;13.12;100.00
64352;BME280;50680;52.626;-8.668;2022-10-19T00:41:46;101740.75;;;13.10;100.00
64352;BME280;50680;52.626;-8.668;2022-10-19T00:46:43;101741.06;;;13.04;100.00
64352;BME280;50680;52.626;-8.668;2022-10-19T00:49:18;101739.53;;;13.00;100.00
64352;BME280;50680;52.626;-8.668;2022-10-19T00:51:49;101747.75;;;12.94;100.00
64352;BME280;50680;52.626;-8.668;2022-10-19T00:54:17;101740.81;;;12.93;100.00
64352;BME280;50680;52.626;-8.668;2022-10-19T00:56:46;101748.84;;;12.90;100.00
64352;BME280;50680;52.626;-8.668;2022-10-19T00:59:18;101746.31;;;12.88;100.00
64352;BME280;50680;52.626;-8.668;2022-10-19T01:01:47;101733.22;;;12.87;100.00
64352;BME280;50680;52.626;-8.668;2022-10-19T01:04:14;101734.06;;;12.87;100.00
64352;BME280;50680;52.626;-8.668;2022-10-19T01:06:41;101726.97;;;12.89;100.00
64352;BME280;50680;52.626;-8.668;2022-10-19T01:09:08;101728.63;;;12.90;100.00
64352;BME280;50680;52.626;-8.668;2022-10-19T01:11:52;101714.47;;;12.93;100.00
64352;BME280;50680;52.626;-8.668;2022-10-19T01:33:38;101687.34;;;13.08;100.00
64352;BME280;50680;52.626;-8.668;2022-10-19T01:38:59;101694.34;;;13.08;100.00
64352;BME280;50680;52.626;-8.668;2022-10-19T01:41:42;101690.72;;;13.10;100.00
64352;BME280;50680;52.626;-8.668;2022-10-19T01:47:06;101665.47;;;13.06;100.00
64352;BME280;50680;52.626;-8.668;2022-10-19T01:49:41;101672.28;;;13.10;100.00
64352;BME280;50680;52.626;-8.668;2022-10-19T01:52:12;101661.75;;;13.10;100.00
64352;BME280;50680;52.626;-8.668;2022-10-19T01:54:46;101631.84;;;13.11;100.00
64352;BME280;50680;52.626;-8.668;2022-10-19T01:57:20;101650.88;;;13.16;100.00
64352;BME280;50680;52.626;-8.668;2022-10-19T01:59:50;101627.09;;;13.18;100.00
64352;BME280;50680;52.626;-8.668;2022-10-19T02:02:19;101609.63;;;13.17;100.00
64352;BME280;50680;52.626;-8.668;2022-10-19T02:04:48;101609.78;;;13.14;100.00
64352;BME280;50680;52.626;-8.668;2022-10-19T02:07:18;101617.75;;;13.12;100.00
64352;BME280;50680;52.626;-8.668;2022-10-19T02:09:46;101621.31;;;13.11;100.00
64352;BME280;50680;52.626;-8.668;2022-10-19T02:12:14;101630.09;;;13.12;100.00
64352;BME280;50680;52.626;-8.668;2022-10-19T02:14:45;101638.81;;;13.12;100.00
64352;BME280;50680;52.626;-8.668;2022-10-19T02:17:16;101637.03;;;13.13;100.00
64352;BME280;50680;52.626;-8.668;2022-10-19T02:19:44;101616.75;;;13.15;100.00
64352;BME280;50680;52.626;-8.668;2022-10-19T02:22:12;101627.16;;;13.16;100.00
64352;BME280;50680;52.626;-8.668;2022-10-19T02:24:39;101624.47;;;13.18;100.00
64352;BME280;50680;52.626;-8.668;2022-10-19T02:27:07;101616.41;;;13.21;100.00
64352;BME280;50680;52.626;-8.668;2022-10-19T02:29:35;101620.47;;;13.27;100.00
64352;BME280;50680;52.626;-8.668;2022-10-19T02:32:03;101605.44;;;13.29;100.00
64352;BME280;50680;52.626;-8.668;2022-10-19T02:34:31;101624.47;;;13.34;100.00
64352;BME280;50680;52.626;-8.668;2022-10-19T02:36:58;101590.22;;;13.34;100.00
64352;BME280;50680;52.626;-8.668;2022-10-19T02:39:25;101584.22;;;13.32;100.00
64352;BME280;50680;52.626;-8.668;2022-10-19T02:42:20;101592.53;;;13.40;100.00
64352;BME280;50680;52.626;-8.668;2022-10-19T02:45:24;101582.56;;;13.45;100.00
64352;BME280;50680;52.626;-8.668;2022-10-19T02:47:56;101574.59;;;13.47;100.00
64352;BME280;50680;52.626;-8.668;2022-10-19T02:50:24;101577.81;;;13.52;100.00
64352;BME280;50680;52.626;-8.668;2022-10-19T02:52:51;101597.84;;;13.54;100.00
64352;BME280;50680;52.626;-8.668;2022-10-19T02:55:18;101582.81;;;13.57;100.00
64352;BME280;50680;52.626;-8.668;2022-10-19T02:57:45;101576.59;;;13.58;100.00
64352;BME280;50680;52.626;-8.668;2022-10-19T03:00:12;101549.41;;;13.57;100.00
64352;BME280;50680;52.626;-8.668;2022-10-19T03:02:39;101532.06;;;13.53;100.00
64352;BME280;50680;52.626;-8.668;2022-10-19T03:05:06;101534.16;;;13.48;100.00
64352;BME280;50680;52.626;-8.668;2022-10-19T03:07:34;101531.78;;;13.43;100.00
64352;BME280;50680;52.626;-8.668;2022-10-19T03:10:02;101535.41;;;13.41;100.00
64352;BME280;50680;52.626;-8.668;2022-10-19T03:12:29;101531.78;;;13.43;100.00
64352;BME280;50680;52.626;-8.668;2022-10-19T03:14:56;101543.63;;;13.50;100.00
64352;BME280;50680;52.626;-8.668;2022-10-19T03:17:23;101549.66;;;13.52;100.00
64352;BME280;50680;52.626;-8.668;2022-10-19T03:19:50;101531.81;;;13.58;100.00
64352;BME280;50680;52.626;-8.668;2022-10-19T03:22:16;101549.22;;;13.60;100.00
64352;BME280;50680;52.626;-8.668;2022-10-19T03:24:43;101537.47;;;13.66;100.00
64352;BME280;50680;52.626;-8.668;2022-10-19T03:27:10;101532.13;;;13.67;100.00
64352;BME280;50680;52.626;-8.668;2022-10-19T03:29:37;101538.97;;;13.70;100.00
64352;BME280;50680;52.626;-8.668;2022-10-19T03:32:04;101540.50;;;13.74;100.00
64352;BME280;50680;52.626;-8.668;2022-10-19T03:34:31;101538.63;;;13.76;100.00
64352;BME280;50680;52.626;-8.668;2022-10-19T03:36:58;101528.75;;;13.80;100.00
64352;BME280;50680;52.626;-8.668;2022-10-19T03:39:25;101540.13;;;13.80;100.00
64352;BME280;50680;52.626;-8.668;2022-10-19T03:41:52;101544.38;;;13.83;100.00
64352;BME280;50680;52.626;-8.668;2022-10-19T03:44:19;101526.78;;;13.83;100.00
64352;BME280;50680;52.626;-8.668;2022-10-19T03:46:46;101526.78;;;13.83;100.00
64352;BME280;50680;52.626;-8.668;2022-10-19T03:49:13;101538.34;;;13.81;100.00
64352;BME280;50680;52.626;-8.668;2022-10-19T03:51:40;101543.72;;;13.79;100.00
64352;BME280;50680;52.626;-8.668;2022-10-19T03:54:12;101542.00;;;13.78;100.00
64352;BME280;50680;52.626;-8.668;2022-10-19T03:56:41;101535.25;;;13.74;100.00
64352;BME280;50680;52.626;-8.668;2022-10-19T03:59:12;101525.88;;;13.68;100.00
64352;BME280;50680;52.626;-8.668;2022-10-19T04:01:43;101503.38;;;13.63;100.00
64352;BME280;50680;52.626;-8.668;2022-10-19T04:04:15;101508.56;;;13.64;100.00
64352;BME280;50680;52.626;-8.668;2022-10-19T04:06:44;101499.06;;;13.62;100.00
64352;BME280;50680;52.626;-8.668;2022-10-19T04:09:13;101509.78;;;13.59;100.00
64352;BME280;50680;52.626;-8.668;2022-10-19T04:11:41;101495.00;;;13.56;100.00
64352;BME280;50680;52.626;-8.668;2022-10-19T04:14:12;101483.72;;;13.54;100.00
64352;BME280;50680;52.626;-8.668;2022-10-19T04:16:52;101486.53;;;13.51;100.00
64352;BME280;50680;52.626;-8.668;2022-10-19T04:19:19;101492.84;;;13.48;100.00
64352;BME280;50680;52.626;-8.668;2022-10-19T04:21:47;101488.56;;;13.46;100.00
64352;BME280;50680;52.626;-8.668;2022-10-19T04:24:17;101492.84;;;13.48;100.00
64352;BME280;50680;52.626;-8.668;2022-10-19T04:26:47;101494.63;;;13.48;100.00
64352;BME280;50680;52.626;-8.668;2022-10-19T04:29:15;101494.72;;;13.46;100.00
64352;BME280;50680;52.626;-8.668;2022-10-19T04:31:42;101517.28;;;13.50;100.00
64352;BME280;50680;52.626;-8.668;2022-10-19T04:34:09;101521.44;;;13.54;100.00
64352;BME280;50680;52.626;-8.668;2022-10-19T04:36:37;101496.72;;;13.57;100.00
64352;BME280;50680;52.626;-8.668;2022-10-19T04:39:04;101492.28;;;13.58;100.00
64352;BME280;50680;52.626;-8.668;2022-10-19T04:41:31;101508.84;;;13.60;100.00
64352;BME280;50680;52.626;-8.668;2022-10-19T04:44:00;101489.28;;;13.64;100.00
64352;BME280;50680;52.626;-8.668;2022-10-19T04:46:28;101504.13;;;13.65;100.00
64352;BME280;50680;52.626;-8.668;2022-10-19T04:48:56;101519.94;;;13.65;100.00
64352;BME280;50680;52.626;-8.668;2022-10-19T04:51:23;101532.38;;;13.63;100.00
64352;BME280;50680;52.626;-8.668;2022-10-19T04:53:50;101525.44;;;13.62;100.00
64352;BME280;50680;52.626;-8.668;2022-10-19T04:56:22;101532.38;;;13.63;100.00
64352;BME280;50680;52.626;-8.668;2022-10-19T04:58:54;101517.53;;;13.62;100.00
64352;BME280;50680;52.626;-8.668;2022-10-19T05:01:23;101508.91;;;13.58;100.00
64352;BME280;50680;52.626;-8.668;2022-10-19T05:03:55;101490.59;;;13.57;100.00
64352;BME280;50680;52.626;-8.668;2022-10-19T05:06:27;101480.22;;;13.53;100.00
64352;BME280;50680;52.626;-8.668;2022-10-19T05:08:54;101475.06;;;13.52;100.00
64352;BME280;50680;52.626;-8.668;2022-10-19T05:11:21;101475.31;;;13.47;100.00
64352;BME280;50680;52.626;-8.668;2022-10-19T05:13:48;101476.06;;;13.49;100.00
64352;BME280;50680;52.626;-8.668;2022-10-19T05:16:18;101483.22;;;13.47;100.00
64352;BME280;50680;52.626;-8.668;2022-10-19T05:18:55;101491.13;;;13.47;100.00
64352;BME280;50680;52.626;-8.668;2022-10-19T05:21:25;101477.13;;;13.47;100.00
64352;BME280;50680;52.626;-8.668;2022-10-19T05:23:54;101474.75;;;13.42;100.00
64352;BME280;50680;52.626;-8.668;2022-10-19T05:26:23;101489.44;;;13.46;100.00
64352;BME280;50680;52.626;-8.668;2022-10-19T05:28:55;101465.75;;;13.46;100.00
64352;BME280;50680;52.626;-8.668;2022-10-19T05:31:25;101443.03;;;13.44;100.00
64352;BME280;50680;52.626;-8.668;2022-10-19T05:33:53;101435.97;;;13.44;100.00
64352;BME280;50680;52.626;-8.668;2022-10-19T05:38:53;101464.03;;;13.45;100.00
64352;BME280;50680;52.626;-8.668;2022-10-19T05:41:21;101463.09;;;13.46;100.00
64352;BME280;50680;52.626;-8.668;2022-10-19T05:43:54;101457.06;;;13.44;100.00
64352;BME280;50680;52.626;-8.668;2022-10-19T05:46:21;101445.59;;;13.45;100.00
64352;BME280;50680;52.626;-8.668;2022-10-19T05:48:48;101449.16;;;13.44;100.00
64352;BME280;50680;52.626;-8.668;2022-10-19T05:51:18;101432.50;;;13.44;100.00
64352;BME280;50680;52.626;-8.668;2022-10-19T05:53:46;101461.47;;;13.44;100.00
64352;BME280;50680;52.626;-8.668;2022-10-19T05:56:18;101475.50;;;13.44;100.00
64352;BME280;50680;52.626;-8.668;2022-10-19T05:58:46;101469.47;;;13.42;100.00
64352;BME280;50680;52.626;-8.668;2022-10-19T06:01:14;101469.38;;;13.44;100.00
64352;BME280;50680;52.626;-8.668;2022-10-19T06:03:41;101457.16;;;13.43;100.00
64352;BME280;50680;52.626;-8.668;2022-10-19T06:06:09;101451.03;;;13.42;100.00
64352;BME280;50680;52.626;-8.668;2022-10-19T06:08:37;101435.97;;;13.44;100.00
64352;BME280;50680;52.626;-8.668;2022-10-19T06:13:36;101420.09;;;13.46;100.00
64352;BME280;50680;52.626;-8.668;2022-10-19T06:16:04;101419.06;;;13.48;100.00
64352;BME280;50680;52.626;-8.668;2022-10-19T06:18:32;101425.09;;;13.50;100.00
64352;BME280;50680;52.626;-8.668;2022-10-19T06:21:04;101434.69;;;13.51;100.00
64352;BME280;50680;52.626;-8.668;2022-10-19T06:23:32;101430.25;;;13.52;100.00
64352;BME280;50680;52.626;-8.668;2022-10-19T06:26:05;101435.34;;;13.55;100.00
64352;BME280;50680;52.626;-8.668;2022-10-19T06:28:33;101429.03;;;13.58;100.00
64352;BME280;50680;52.626;-8.668;2022-10-19T06:31:00;101401.84;;;13.57;100.00
64352;BME280;50680;52.626;-8.668;2022-10-19T06:33:32;101409.66;;;13.59;100.00
64352;BME280;50680;52.626;-8.668;2022-10-19T06:36:12;101396.41;;;13.60;100.00
64352;BME280;50680;52.626;-8.668;2022-10-19T06:38:40;101398.09;;;13.61;100.00
64352;BME280;50680;52.626;-8.668;2022-10-19T06:41:07;101406.94;;;13.60;100.00
64352;BME280;50680;52.626;-8.668;2022-10-19T06:43:34;101430.75;;;13.59;100.00
64352;BME280;50680;52.626;-8.668;2022-10-19T06:46:06;101414.94;;;13.59;100.00
64352;BME280;50680;52.626;-8.668;2022-10-19T06:48:33;101400.25;;;13.54;100.00
64352;BME280;50680;52.626;-8.668;2022-10-19T06:51:03;101366.19;;;13.51;100.00
64352;BME280;50680;52.626;-8.668;2022-10-19T06:53:32;101361.13;;;13.48;100.00
64352;BME280;50680;52.626;-8.668;2022-10-19T06:56:01;101349.25;;;13.41;100.00
64352;BME280;50680;52.626;-8.668;2022-10-19T06:58:29;101315.94;;;13.40;100.00
64352;BME280;50680;52.626;-8.668;2022-10-19T07:00:57;101325.00;;;13.36;100.00
64352;BME280;50680;52.626;-8.668;2022-10-19T07:03:26;101321.56;;;13.34;100.00
64352;BME280;50680;52.626;-8.668;2022-10-19T07:05:58;101322.53;;;13.33;100.00
64352;BME280;50680;52.626;-8.668;2022-10-19T07:08:27;101318.00;;;13.35;100.00
64352;BME280;50680;52.626;-8.668;2022-10-19T07:10:57;101315.38;;;13.35;100.00
64352;BME280;50680;52.626;-8.668;2022-10-19T07:13:26;101304.84;;;13.35;100.00
64352;BME280;50680;52.626;-8.668;2022-10-19T07:16:04;101276.63;;;13.37;100.00
64352;BME280;50680;52.626;-8.668;2022-10-19T07:18:33;101277.59;;;13.36;100.00
64352;BME280;50680;52.626;-8.668;2022-10-19T07:21:03;101274.53;;;13.42;100.00
64352;BME280;50680;52.626;-8.668;2022-10-19T07:23:32;101269.09;;;13.45;100.00
64352;BME280;50680;52.626;-8.668;2022-10-19T07:26:11;101267.94;;;13.49;100.00
64352;BME280;50680;52.626;-8.668;2022-10-19T07:28:39;101277.38;;;13.53;100.00
64352;BME280;50680;52.626;-8.668;2022-10-19T07:31:09;101276.63;;;13.51;100.00
64352;BME280;50680;52.626;-8.668;2022-10-19T07:33:36;101284.31;;;13.54;100.00
64352;BME280;50680;52.626;-8.668;2022-10-19T07:36:06;101280.75;;;13.56;100.00
64352;BME280;50680;52.626;-8.668;2022-10-19T07:38:34;101286.75;;;13.58;100.00
64352;BME280;50680;52.626;-8.668;2022-10-19T07:41:03;101286.03;;;13.56;100.00
64352;BME280;50680;52.626;-8.668;2022-10-19T07:43:31;101293.72;;;13.59;100.00
64352;BME280;50680;52.626;-8.668;2022-10-19T07:46:00;101314.81;;;13.59;100.00
64352;BME280;50680;52.626;-8.668;2022-10-19T07:48:28;101326.19;;;13.59;100.00
64352;BME280;50680;52.626;-8.668;2022-10-19T07:50:55;101348.88;;;13.62;100.00
64352;BME280;50680;52.626;-8.668;2022-10-19T07:53:23;101352.19;;;13.65;100.00
64352;BME280;50680;52.626;-8.668;2022-10-19T07:55:50;101367.69;;;13.70;100.00
64352;BME280;50680;52.626;-8.668;2022-10-19T07:58:16;101372.84;;;13.71;100.00
64352;BME280;50680;52.626;-8.668;2022-10-19T08:00:43;101372.75;;;13.73;100.00
64352;BME280;50680;52.626;-8.668;2022-10-19T08:03:10;101370.78;;;13.77;100.00
64352;BME280;50680;52.626;-8.668;2022-10-19T08:06:03;101366.47;;;13.76;100.00
64352;BME280;50680;52.626;-8.668;2022-10-19T08:08:31;101359.97;;;13.81;100.00
64352;BME280;50680;52.626;-8.668;2022-10-19T08:11:12;101363.34;;;13.83;100.00
64352;BME280;50680;52.626;-8.668;2022-10-19T08:13:39;101370.88;;;13.89;100.00
64352;BME280;50680;52.626;-8.668;2022-10-19T08:16:23;101375.16;;;14.19;100.00
64352;BME280;50680;52.626;-8.668;2022-10-19T08:18:54;101384.06;;;14.58;100.00
64352;BME280;50680;52.626;-8.668;2022-10-19T08:21:21;101377.16;;;14.70;100.00
64352;BME280;50680;52.626;-8.668;2022-10-19T08:23:48;101368.34;;;14.97;100.00
64352;BME280;50680;52.626;-8.668;2022-10-19T08:26:15;101371.66;;;15.26;100.00
64352;BME280;50680;52.626;-8.668;2022-10-19T08:28:42;101381.66;;;15.47;100.00
64352;BME280;50680;52.626;-8.668;2022-10-19T08:31:20;101384.81;;;15.52;100.00
64352;BME280;50680;52.626;-8.668;2022-10-19T08:33:49;101403.25;;;15.40;100.00
64352;BME280;50680;52.626;-8.668;2022-10-19T08:36:17;101417.59;;;15.36;100.00
64352;BME280;50680;52.626;-8.668;2022-10-19T08:38:45;101402.59;;;15.24;100.00
64352;BME280;50680;52.626;-8.668;2022-10-19T08:49:38;101391.03;;;14.99;100.00
64352;BME280;50680;52.626;-8.668;2022-10-19T08:52:20;101379.22;;;14.92;100.00
64352;BME280;50680;52.626;-8.668;2022-10-19T08:54:54;101373.09;;;14.92;100.00
64352;BME280;50680;52.626;-8.668;2022-10-19T09:00:43;101389.88;;;14.91;100.00
64352;BME280;50680;52.626;-8.668;2022-10-19T09:03:18;101387.78;;;14.96;100.00
64352;BME280;50680;52.626;-8.668;2022-10-19T09:06:18;101391.34;;;14.95;100.00
64352;BME280;50680;52.626;-8.668;2022-10-19T09:08:51;101394.75;;;14.97;100.00
64352;BME280;50680;52.626;-8.668;2022-10-19T09:11:22;101398.03;;;15.00;100.00
64352;BME280;50680;52.626;-8.668;2022-10-19T09:13:59;101391.69;;;15.03;100.00
64352;BME280;50680;52.626;-8.668;2022-10-19T09:16:31;101384.81;;;15.00;100.00
64352;BME280;50680;52.626;-8.668;2022-10-19T09:19:02;101379.53;;;15.00;100.00
64352;BME280;50680;52.626;-8.668;2022-10-19T09:22:03;101377.75;;;15.01;100.00
64352;BME280;50680;52.626;-8.668;2022-10-19T09:24:40;101370.34;;;15.06;100.00
64352;BME280;50680;52.626;-8.668;2022-10-19T09:27:22;101374.69;;;15.07;100.00
64352;BME280;50680;52.626;-8.668;2022-10-19T09:29:58;101391.38;;;15.08;100.00
64352;BME280;50680;52.626;-8.668;2022-10-19T09:32:34;101381.66;;;15.08;100.00
64352;BME280;50680;52.626;-8.668;2022-10-19T09:35:35;101372.34;;;15.02;100.00
64352;BME280;50680;52.626;-8.668;2022-10-19T09:38:04;101389.88;;;15.03;100.00
64352;BME280;50680;52.626;-8.668;2022-10-19T09:40:33;101397.25;;;14.98;100.00
64352;BME280;50680;52.626;-8.668;2022-10-19T09:43:04;101396.63;;;14.95;100.00
64352;BME280;50680;52.626;-8.668;2022-10-19T09:45:55;101395.16;;;14.91;100.00
64352;BME280;50680;52.626;-8.668;2022-10-19T09:48:34;101368.84;;;14.89;100.00
64352;BME280;50680;52.626;-8.668;2022-10-19T09:51:11;101360.09;;;14.89;100.00
64352;BME280;50680;52.626;-8.668;2022-10-19T09:53:50;101360.94;;;14.89;100.00
64352;BME280;50680;52.626;-8.668;2022-10-19T09:56:22;101357.97;;;14.94;100.00
64352;BME280;50680;52.626;-8.668;2022-10-19T09:58:52;101339.69;;;14.91;100.00
64352;BME280;50680;52.626;-8.668;2022-10-19T10:06:38;101330.34;;;15.12;100.00
64352;BME280;50680;52.626;-8.668;2022-10-19T10:09:05;101325.88;;;15.13;100.00
64352;BME280;50680;52.626;-8.668;2022-10-19T10:11:35;101331.06;;;15.14;100.00
64352;BME280;50680;52.626;-8.668;2022-10-19T10:17:00;101343.19;;;15.17;100.00
64352;BME280;50680;52.626;-8.668;2022-10-19T10:19:30;101352.31;;;15.13;100.00
64352;BME280;50680;52.626;-8.668;2022-10-19T10:21:58;101343.84;;;15.08;100.00
64352;BME280;50680;52.626;-8.668;2022-10-19T10:24:30;101337.28;;;15.00;100.00
64352;BME280;50680;52.626;-8.668;2022-10-19T10:27:01;101342.97;;;14.94;100.00
64352;BME280;50680;52.626;-8.668;2022-10-19T10:29:37;101348.56;;;14.90;100.00
64352;BME280;50680;52.626;-8.668;2022-10-19T10:32:12;101346.97;;;14.87;100.00
64352;BME280;50680;52.626;-8.668;2022-10-19T10:35:24;101347.63;;;14.78;100.00
64352;BME280;50680;52.626;-8.668;2022-10-19T10:38:07;101347.72;;;14.76;100.00
64352;BME280;50680;52.626;-8.668;2022-10-19T10:40:34;101351.38;;;14.74;100.00
64352;BME280;50680;52.626;-8.668;2022-10-19T10:43:26;101349.91;;;14.70;100.00
64352;BME280;50680;52.626;-8.668;2022-10-19T10:46:00;101346.31;;;14.71;100.00
64352;BME280;50680;52.626;-8.668;2022-10-19T10:48:56;101349.91;;;14.70;100.00
64352;BME280;50680;52.626;-8.668;2022-10-19T10:54:18;101336.81;;;14.68;100.00
64352;BME280;50680;52.626;-8.668;2022-10-19T10:57:08;101320.03;;;14.69;100.00
64352;BME280;50680;52.626;-8.668;2022-10-19T11:07:43;101315.69;;;14.68;100.00
64352;BME280;50680;52.626;-8.668;2022-10-19T11:10:25;101312.88;;;14.71;100.00
64352;BME280;50680;52.626;-8.668;2022-10-19T11:13:13;101310.97;;;14.73;100.00
64352;BME280;50680;52.626;-8.668;2022-10-19T11:16:14;101297.75;;;14.73;100.00
64352;BME280;50680;52.626;-8.668;2022-10-19T11:18:48;101295.75;;;14.77;100.00
64352;BME280;50680;52.626;-8.668;2022-10-19T11:21:24;101289.75;;;14.75;100.00
64352;BME280;50680;52.626;-8.668;2022-10-19T11:24:13;101287.31;;;14.72;100.00
64352;BME280;50680;52.626;-8.668;2022-10-19T11:30:00;101279.38;;;14.72;100.00
64352;BME280;50680;52.626;-8.668;2022-10-19T11:35:50;101259.75;;;14.76;100.00
64352;BME280;50680;52.626;-8.668;2022-10-19T11:55:35;101209.47;;;15.16;100.00
64352;BME280;50680;52.626;-8.668;2022-10-19T12:00:19;101194.56;;;15.15;100.00
64352;BME280;50680;52.626;-8.668;2022-10-19T12:08:39;101171.34;;;15.31;100.00
64352;BME280;50680;52.626;-8.668;2022-10-19T12:14:31;101145.41;;;15.25;100.00
64352;BME280;50680;52.626;-8.668;2022-10-19T12:17:14;101136.75;;;15.23;100.00
64352;BME280;50680;52.626;-8.668;2022-10-19T12:19:45;101113.50;;;15.15;100.00
64352;BME280;50680;52.626;-8.668;2022-10-19T12:22:22;101109.31;;;15.13;100.00
64352;BME280;50680;52.626;-8.668;2022-10-19T12:24:52;101101.38;;;15.13;100.00
64352;BME280;50680;52.626;-8.668;2022-10-19T12:27:38;101100.41;;;15.14;100.00
64352;BME280;50680;52.626;-8.668;2022-10-19T12:30:21;101099.47;;;15.15;100.00
64352;BME280;50680;52.626;-8.668;2022-10-19T12:32:54;101093.50;;;15.24;100.00
64352;BME280;50680;52.626;-8.668;2022-10-19T12:35:54;101076.00;;;15.23;100.00
64352;BME280;50680;52.626;-8.668;2022-10-19T12:41:17;101045.91;;;15.13;100.00
64352;BME280;50680;52.626;-8.668;2022-10-19T12:46:40;101055.50;;;15.14;100.00
64352;BME280;50680;52.626;-8.668;2022-10-19T12:51:56;101068.22;;;15.09;100.00
64352;BME280;50680;52.626;-8.668;2022-10-19T12:54:25;101041.44;;;15.02;100.00
64352;BME280;50680;52.626;-8.668;2022-10-19T12:56:54;101045.34;;;14.96;100.00
64352;BME280;50680;52.626;-8.668;2022-10-19T12:59:30;101057.31;;;14.89;100.00
64352;BME280;50680;52.626;-8.668;2022-10-19T13:01:58;101061.44;;;14.80;100.00
64352;BME280;50680;52.626;-8.668;2022-10-19T13:04:29;101050.25;;;14.77;100.00
64352;BME280;50680;52.626;-8.668;2022-10-19T13:09:40;101029.31;;;14.62;100.00
64352;BME280;50680;52.626;-8.668;2022-10-19T13:14:59;101028.75;;;14.57;100.00
64352;BME280;50680;52.626;-8.668;2022-10-19T13:25:33;101033.72;;;14.49;100.00
64352;BME280;50680;52.626;-8.668;2022-10-19T13:41:24;100985.94;;;14.41;100.00
64352;BME280;50680;52.626;-8.668;2022-10-19T14:13:27;100887.28;;;14.06;100.00
64352;BME280;50680;52.626;-8.668;2022-10-19T14:15:56;100856.25;;;14.10;100.00
64352;BME280;50680;52.626;-8.668;2022-10-19T14:18:29;100840.44;;;14.10;100.00
64352;BME280;50680;52.626;-8.668;2022-10-19T14:21:08;100833.50;;;14.09;100.00
64352;BME280;50680;52.626;-8.668;2022-10-19T14:23:37;100838.25;;;14.04;100.00
64352;BME280;50680;52.626;-8.668;2022-10-19T14:26:21;100850.78;;;14.13;100.00
64352;BME280;50680;52.626;-8.668;2022-10-19T14:28:53;100867.47;;;14.14;100.00
64352;BME280;50680;52.626;-8.668;2022-10-19T14:31:23;100869.22;;;14.13;100.00
64352;BME280;50680;52.626;-8.668;2022-10-19T14:33:52;100859.31;;;14.17;100.00
64352;BME280;50680;52.626;-8.668;2022-10-19T14:36:21;100876.50;;;14.22;100.00
64352;BME280;50680;52.626;-8.668;2022-10-19T14:38:52;100860.44;;;14.25;100.00
64352;BME280;50680;52.626;-8.668;2022-10-19T14:43:55;100854.94;;;14.28;100.00
64352;BME280;50680;52.626;-8.668;2022-10-19T14:46:30;100850.63;;;14.27;100.00
64352;BME280;50680;52.626;-8.668;2022-10-19T14:49:00;100858.53;;;14.27;100.00
64352;BME280;50680;52.626;-8.668;2022-10-19T14:54:11;100856.00;;;14.26;100.00
64352;BME280;50680;52.626;-8.668;2022-10-19T14:56:51;100852.50;;;14.25;100.00
64352;BME280;50680;52.626;-8.668;2022-10-19T14:59:28;100823.41;;;14.27;100.00
64352;BME280;50680;52.626;-8.668;2022-10-19T15:02:03;100816.34;;;14.27;100.00
64352;BME280;50680;52.626;-8.668;2022-10-19T15:04:33;100800.53;;;14.27;100.00
64352;BME280;50680;52.626;-8.668;2022-10-19T15:07:12;100790.81;;;14.28;100.00
64352;BME280;50680;52.626;-8.668;2022-10-19T15:09:46;100788.78;;;14.32;100.00
64352;BME280;50680;52.626;-8.668;2022-10-19T15:12:17;100763.47;;;14.29;100.00
64352;BME280;50680;52.626;-8.668;2022-10-19T15:14:46;100753.06;;;14.27;100.00
64352;BME280;50680;52.626;-8.668;2022-10-19T15:17:47;100731.19;;;14.25;100.00
64352;BME280;50680;52.626;-8.668;2022-10-19T15:20:31;100701.59;;;14.22;100.00
64352;BME280;50680;52.626;-8.668;2022-10-19T15:23:46;100705.81;;;14.24;100.00
64352;BME280;50680;52.626;-8.668;2022-10-19T15:28:43;100732.41;;;14.21;100.00
64352;BME280;50680;52.626;-8.668;2022-10-19T15:33:50;100755.41;;;14.19;100.00
64352;BME280;50680;52.626;-8.668;2022-10-19T15:36:18;100742.00;;;14.22;100.00
64352;BME280;50680;52.626;-8.668;2022-10-19T15:38:48;100747.28;;;14.22;100.00
64352;BME280;50680;52.626;-8.668;2022-10-19T15:41:24;100739.22;;;14.24;100.00
64352;BME280;50680;52.626;-8.668;2022-10-19T15:43:53;100743.78;;;14.22;100.00
64352;BME280;50680;52.626;-8.668;2022-10-19T15:46:28;100734.81;;;14.24;100.00